Time;durP1;ratioP1;P1;durP2;ratioP2;P2;SDS_P1;SDS_P2;PMS_P1;PMS_P2;Temp;Humidity;BMP_temperature;BMP_pressure;BME280_temperature;BME280_humidity;BME280_pressure;Samples;Min_cycle;Max_cycle;Signal;HPM_P1;HPM_P2
2022/03/08 00:00:37;;;;;;;6.03;3.20;;;;;;;-1.06;100.00;102409.88;6125467;29;20055;-78
2022/03/08 00:03:38;;;;;;;4.95;2.92;;;;;;;-1.08;100.00;102411.56;6125907;29;20047;-78
2022/03/08 00:06:39;;;;;;;8.73;4.88;;;;;;;-1.09;100.00;102415.88;6118497;29;20048;-78
2022/03/08 00:09:43;;;;;;;7.60;3.47;;;;;;;-1.08;100.00;102414.16;6113632;29;20451;-78
2022/03/08 00:12:46;;;;;;;5.47;2.67;;;;;;;-1.15;100.00;102410.56;6106128;29;20075;-77
2022/03/08 00:15:48;;;;;;;9.77;3.00;;;;;;;-1.17;100.00;102412.25;6109776;29;20056;-78
2022/03/08 00:18:49;;;;;;;5.72;3.17;;;;;;;-1.21;100.00;102405.28;6121029;29;20051;-78
2022/03/08 00:21:51;;;;;;;7.53;3.35;;;;;;;-1.21;100.00;102399.25;6112883;29;20127;-78
2022/03/08 00:24:53;;;;;;;8.18;3.63;;;;;;;-1.22;100.00;102394.94;6125379;29;20070;-78
2022/03/08 00:27:56;;;;;;;8.55;3.85;;;;;;;-1.23;100.00;102393.16;6125183;29;20047;-78
2022/03/08 00:30:57;;;;;;;6.47;3.13;;;;;;;-1.25;100.00;102390.56;6124744;29;20059;-78
2022/03/08 00:33:59;;;;;;;6.85;3.35;;;;;;;-1.28;100.00;102386.19;6125009;29;20055;-77
2022/03/08 00:37:00;;;;;;;6.78;4.30;;;;;;;-1.32;100.00;102376.69;6125193;29;20422;-78
2022/03/08 00:40:04;;;;;;;8.75;3.08;;;;;;;-1.34;100.00;102380.91;6124656;29;20055;-77
2022/03/08 00:43:06;;;;;;;3.40;3.00;;;;;;;-1.34;100.00;102369.75;6118703;28;20059;-77
2022/03/08 00:46:07;;;;;;;6.47;3.65;;;;;;;-1.34;100.00;102372.31;6115054;28;20048;-77
2022/03/08 00:49:09;;;;;;;6.85;3.55;;;;;;;-1.34;100.00;102365.44;6125104;29;20066;-77
2022/03/08 00:52:10;;;;;;;11.10;4.25;;;;;;;-1.36;100.00;102366.28;6124248;29;20051;-78
2022/03/08 00:55:15;;;;;;;9.25;3.78;;;;;;;-1.39;100.00;102364.47;6124907;29;20051;-77
2022/03/08 00:58:17;;;;;;;8.48;4.45;;;;;;;-1.39;100.00;102363.63;6124846;29;20133;-78
2022/03/08 01:01:18;;;;;;;11.27;2.80;;;;;;;-1.44;100.00;102363.50;6124358;29;20056;-78
2022/03/08 01:04:20;;;;;;;8.18;3.90;;;;;;;-1.49;100.00;102357.38;6124551;29;20054;-77
2022/03/08 01:07:21;;;;;;;6.22;3.70;;;;;;;-1.48;100.00;102358.25;6124589;29;20052;-78
2022/03/08 01:10:25;;;;;;;5.47;3.13;;;;;;;-1.51;100.00;102361.63;6123406;29;20055;-77
2022/03/08 01:13:26;;;;;;;6.78;3.60;;;;;;;-1.56;100.00;102361.53;6124172;29;20422;-77
2022/03/08 01:16:27;;;;;;;5.63;3.20;;;;;;;-1.57;100.00;102367.53;6124420;29;20055;-77
2022/03/08 01:19:29;;;;;;;5.57;3.42;;;;;;;-1.56;100.00;102365.81;6124285;29;20051;-77
2022/03/08 01:22:30;;;;;;;12.13;4.22;;;;;;;-1.60;100.00;102372.59;6123788;29;20059;-77
2022/03/08 01:25:34;;;;;;;7.97;4.45;;;;;;;-1.62;100.00;102368.25;6124189;29;20055;-77
2022/03/08 01:28:35;;;;;;;10.10;4.20;;;;;;;-1.66;100.00;102375.03;6124346;29;20134;-77
2022/03/08 01:31:36;;;;;;;5.57;2.90;;;;;;;-1.70;100.00;102375.81;6123605;29;20055;-77
2022/03/08 01:34:38;;;;;;;11.68;3.97;;;;;;;-1.72;100.00;102371.47;6124019;29;20051;-77
2022/03/08 01:37:40;;;;;;;12.95;3.95;;;;;;;-1.70;100.00;102369.78;6123971;29;20135;-77
2022/03/08 01:40:42;;;;;;;9.25;4.28;;;;;;;-1.67;100.00;102357.84;6123311;29;20059;-77
2022/03/08 01:43:45;;;;;;;6.85;3.17;;;;;;;-1.69;100.00;102359.50;6120753;29;20507;-78
2022/03/08 01:46:47;;;;;;;4.97;2.70;;;;;;;-1.71;100.00;102358.59;6076651;29;20053;-77
2022/03/08 01:49:49;;;;;;;10.65;3.78;;;;;;;-1.70;100.00;102356.91;6076616;29;20060;-77
2022/03/08 01:52:51;;;;;;;4.60;2.50;;;;;;;-1.73;100.00;102354.25;6076384;29;20056;-78
2022/03/08 01:55:54;;;;;;;7.45;3.83;;;;;;;-1.77;100.00;102353.31;6077024;29;20057;-78
2022/03/08 01:58:56;;;;;;;4.78;2.60;;;;;;;-1.82;100.00;102352.31;6076731;29;20168;-77
2022/03/08 02:01:58;;;;;;;7.25;3.08;;;;;;;-1.85;100.00;102347.13;6076390;29;20052;-77
2022/03/08 02:04:59;;;;;;;4.82;3.13;;;;;;;-1.87;100.00;102352.22;6076899;29;20059;-77
2022/03/08 02:08:01;;;;;;;8.60;4.78;;;;;;;-1.89;100.00;102350.44;6112765;29;20043;-77
2022/03/08 02:11:03;;;;;;;3.72;2.72;;;;;;;-1.88;100.00;102349.59;6101812;29;20045;-77
2022/03/08 02:14:05;;;;;;;5.25;2.80;;;;;;;-1.90;100.00;102343.56;6107211;28;20059;-77
2022/03/08 02:17:06;;;;;;;6.13;3.17;;;;;;;-1.93;100.00;102344.34;6113454;29;20491;-77
2022/03/08 02:20:09;;;;;;;5.45;2.90;;;;;;;-1.97;100.00;102337.38;6122840;29;20048;-77
2022/03/08 02:23:13;;;;;;;6.88;3.08;;;;;;;-1.95;100.00;102340.88;6121863;29;20048;-77
2022/03/08 02:26:14;;;;;;;10.20;3.20;;;;;;;-1.93;100.00;102341.78;6123003;29;20062;-77
2022/03/08 02:29:15;;;;;;;5.60;3.05;;;;;;;-1.94;100.00;102334.88;6123164;29;20415;-78
2022/03/08 02:32:17;;;;;;;7.13;3.38;;;;;;;-1.94;100.00;102344.31;6122418;29;20055;-77
2022/03/08 02:35:21;;;;;;;7.78;2.70;;;;;;;-1.97;100.00;102326.22;6123054;29;20086;-77
2022/03/08 02:38:23;;;;;;;3.95;2.15;;;;;;;-2.00;100.00;102331.28;6122523;28;20059;-77
2022/03/08 02:41:25;;;;;;;7.22;3.58;;;;;;;-2.00;100.00;102324.41;6114361;29;20522;-77
2022/03/08 02:44:27;;;;;;;6.68;3.20;;;;;;;-1.99;100.00;102322.75;6122882;29;20054;-77
2022/03/08 02:47:29;;;;;;;4.20;2.33;;;;;;;-1.99;100.00;102327.91;6123212;28;20048;-77
2022/03/08 02:50:30;;;;;;;4.65;2.35;;;;;;;-1.96;100.00;102322.78;6122482;29;20047;-78
2022/03/08 02:53:33;;;;;;;7.53;3.65;;;;;;;-1.97;100.00;102321.91;6122723;29;20052;-78
2022/03/08 02:56:36;;;;;;;6.05;3.22;;;;;;;-1.99;100.00;102323.59;6122829;29;20054;-77
2022/03/08 02:59:37;;;;;;;6.93;3.15;;;;;;;-2.03;100.00;102319.22;6122519;29;20500;-77
2022/03/08 03:02:39;;;;;;;4.85;2.75;;;;;;;-2.09;100.00;102314.78;6107298;29;20071;-77
2022/03/08 03:05:40;;;;;;;6.53;2.88;;;;;;;-2.09;100.00;102308.75;6084745;29;20053;-77
2022/03/08 03:08:43;;;;;;;5.70;3.10;;;;;;;-2.13;100.00;102312.09;6084557;29;20424;-77
2022/03/08 03:11:44;;;;;;;5.13;2.88;;;;;;;-2.13;100.00;102312.09;6084856;28;20048;-77
2022/03/08 03:14:46;;;;;;;6.07;3.28;;;;;;;-2.15;100.00;102306.91;6087023;29;20051;-77
2022/03/08 03:17:47;;;;;;;5.35;2.83;;;;;;;-2.12;100.00;102303.53;6087135;29;20044;-77
2022/03/08 03:20:49;;;;;;;8.55;3.92;;;;;;;-2.14;100.00;102298.34;6083554;28;20048;-78
2022/03/08 03:23:51;;;;;;;4.53;2.72;;;;;;;-2.15;100.00;102308.59;6095890;29;20055;-78
2022/03/08 03:26:53;;;;;;;6.72;3.60;;;;;;;-2.16;100.00;102299.16;6098893;29;20056;-78
2022/03/08 03:29:54;;;;;;;8.93;2.55;;;;;;;-2.18;100.00;102305.94;6098659;29;20059;-78
2022/03/08 03:32:55;;;;;;;3.70;2.67;;;;;;;-2.21;100.00;102316.19;6098432;28;20063;-78
2022/03/08 03:35:57;;;;;;;9.85;3.38;;;;;;;-2.24;100.00;102313.53;6095460;29;20049;-78
2022/03/08 03:38:59;;;;;;;7.75;3.30;;;;;;;-2.27;100.00;102316.03;6079298;28;20057;-78
2022/03/08 03:42:01;;;;;;;7.18;3.58;;;;;;;-2.31;100.00;102297.94;6078657;28;20060;-78
2022/03/08 03:45:03;;;;;;;11.80;4.07;;;;;;;-2.30;100.00;102307.41;6082713;29;20044;-78
2022/03/08 03:48:05;;;;;;;10.45;3.15;;;;;;;-2.30;100.00;102315.13;6099577;29;20059;-77
2022/03/08 03:51:07;;;;;;;4.38;2.50;;;;;;;-2.28;100.00;102311.72;6101810;29;20484;-78
2022/03/08 03:54:09;;;;;;;7.32;4.22;;;;;;;-2.31;100.00;102315.09;6102450;29;20051;-77
2022/03/08 03:57:12;;;;;;;8.75;3.85;;;;;;;-2.33;100.00;102320.19;6102510;29;20052;-78
2022/03/08 04:00:15;;;;;;;4.50;2.85;;;;;;;-2.34;100.00;102315.88;6102086;29;20508;-78
2022/03/08 04:03:18;;;;;;;6.20;2.58;;;;;;;-2.37;100.00;102320.09;6102111;29;20052;-78
2022/03/08 04:06:20;;;;;;;10.25;4.32;;;;;;;-2.39;100.00;102325.19;6109080;29;20453;-78
2022/03/08 04:09:23;;;;;;;3.88;2.47;;;;;;;-2.42;100.00;102319.97;6102097;29;20052;-78
2022/03/08 04:12:24;;;;;;;7.25;3.08;;;;;;;-2.44;100.00;102311.34;6124992;29;20518;-78
2022/03/08 04:15:26;;;;;;;6.18;3.28;;;;;;;-2.47;100.00;102316.41;6111060;29;20044;-78
2022/03/08 04:18:27;;;;;;;6.13;2.85;;;;;;;-2.50;100.00;102323.16;6124742;29;20052;-78
2022/03/08 04:21:28;;;;;;;5.55;3.08;;;;;;;-2.51;100.00;102326.59;6108455;28;20056;-78
2022/03/08 04:24:32;;;;;;;6.10;3.08;;;;;;;-2.55;100.00;102318.78;6115879;29;20055;-78
2022/03/08 04:27:33;;;;;;;9.07;3.72;;;;;;;-2.57;100.00;102325.59;6109832;28;20060;-78
2022/03/08 04:30:35;;;;;;;5.45;3.22;;;;;;;-2.59;100.00;102324.69;6101458;29;20053;-78
2022/03/08 04:33:36;;;;;;;4.78;3.05;;;;;;;-2.60;100.00;102322.06;6109445;29;20047;-78
2022/03/08 04:36:38;;;;;;;6.65;3.78;;;;;;;-2.62;100.00;102321.16;6101645;29;20405;-78
2022/03/08 04:39:40;;;;;;;11.38;3.95;;;;;;;-2.62;100.00;102322.03;6101640;29;20063;-77
2022/03/08 04:42:43;;;;;;;5.10;3.08;;;;;;;-2.67;100.00;102321.06;6101376;29;20052;-78
2022/03/08 04:45:44;;;;;;;6.07;3.00;;;;;;;-2.67;100.00;102327.91;6103601;29;20044;-77
2022/03/08 04:48:45;;;;;;;5.10;2.88;;;;;;;-2.68;100.00;102329.59;6108935;29;20056;-78
2022/03/08 04:51:47;;;;;;;4.88;3.05;;;;;;;-2.71;100.00;102324.38;6100799;29;20052;-78
2022/03/08 04:54:50;;;;;;;9.07;4.53;;;;;;;-2.73;100.00;102327.72;6101603;29;20052;-78
2022/03/08 04:57:51;;;;;;;5.05;2.85;;;;;;;-2.73;100.00;102325.16;6100987;29;20048;-78
2022/03/08 05:00:52;;;;;;;17.70;3.00;;;;;;;-2.76;100.00;102323.38;6112708;29;20052;-78
2022/03/08 05:03:54;;;;;;;6.82;3.60;;;;;;;-2.76;100.00;102328.53;6124755;29;20055;-78
2022/03/08 05:06:55;;;;;;;7.40;3.53;;;;;;;-2.76;100.00;102328.53;6124684;29;20542;-78
2022/03/08 05:09:57;;;;;;;4.93;3.10;;;;;;;-2.75;100.00;102331.97;6124629;28;20056;-78
2022/03/08 05:13:00;;;;;;;3.67;2.33;;;;;;;-2.74;100.00;102333.72;6124274;29;20090;-78
2022/03/08 05:16:01;;;;;;;6.68;3.30;;;;;;;-2.78;100.00;102326.72;6124599;29;20507;-78
2022/03/08 05:19:02;;;;;;;13.52;3.58;;;;;;;-2.83;100.00;102334.31;6124784;29;20058;-78
2022/03/08 05:22:05;;;;;;;11.55;3.92;;;;;;;-2.85;100.00;102329.16;6124201;29;20056;-78
2022/03/08 05:25:09;;;;;;;7.85;3.67;;;;;;;-2.86;100.00;102334.22;6124210;28;20052;-78
2022/03/08 05:28:10;;;;;;;5.30;2.92;;;;;;;-2.88;100.00;102338.47;6124644;29;20097;-78
2022/03/08 05:31:12;;;;;;;6.35;3.20;;;;;;;-2.89;100.00;102345.31;6123987;28;20142;-79
2022/03/08 05:34:14;;;;;;;4.38;2.72;;;;;;;-2.89;100.00;102335.03;6124591;29;20052;-78
2022/03/08 05:37:15;;;;;;;6.95;4.40;;;;;;;-2.90;100.00;102340.16;6124105;28;20407;-78
2022/03/08 05:40:19;;;;;;;6.50;3.50;;;;;;;-2.92;100.00;102336.66;6123786;29;20058;-80
2022/03/08 05:43:20;;;;;;;8.10;4.45;;;;;;;-2.94;100.00;102336.63;6124091;29;20062;-78
2022/03/08 05:46:21;;;;;;;9.98;4.50;;;;;;;-2.95;100.00;102341.69;6124273;29;20047;-78
2022/03/08 05:49:23;;;;;;;6.82;2.85;;;;;;;-2.95;100.00;102334.88;6124999;29;20178;-78
2022/03/08 05:52:24;;;;;;;5.28;2.58;;;;;;;-2.93;100.00;102334.91;6123779;29;20048;-79
2022/03/08 05:55:27;;;;;;;5.20;2.60;;;;;;;-2.90;100.00;102328.16;6124292;29;20610;-77
2022/03/08 05:58:28;;;;;;;4.07;2.75;;;;;;;-2.87;100.00;102333.38;6123852;29;20062;-78
2022/03/08 06:01:30;;;;;;;4.75;2.78;;;;;;;-2.86;100.00;102334.22;6123596;29;20510;-78
2022/03/08 06:04:31;;;;;;;6.35;4.07;;;;;;;-2.88;100.00;102339.34;6115425;29;20182;-78
2022/03/08 06:07:33;;;;;;;9.07;4.53;;;;;;;-2.87;100.00;102345.34;6111013;29;20430;-79
2022/03/08 06:10:36;;;;;;;8.43;4.00;;;;;;;-2.85;100.00;102348.84;6105553;29;20060;-78
2022/03/08 06:13:37;;;;;;;4.53;3.00;;;;;;;-2.81;100.00;102346.41;6100061;29;20059;-79
2022/03/08 06:16:38;;;;;;;6.85;3.08;;;;;;;-2.78;100.00;102342.16;6100540;29;20059;-78
2022/03/08 06:19:40;;;;;;;5.55;3.13;;;;;;;-2.76;100.00;102351.69;6109935;29;20056;-80
2022/03/08 06:22:41;;;;;;;7.30;3.80;;;;;;;-2.74;100.00;102344.88;6123203;29;20048;-79
2022/03/08 06:25:44;;;;;;;3.72;1.90;;;;;;;-2.71;100.00;102350.09;6123560;29;20059;-78
2022/03/08 06:28:45;;;;;;;3.72;2.85;;;;;;;-2.70;100.00;102351.84;6123725;29;20059;-79
2022/03/08 06:31:47;;;;;;;9.57;3.85;;;;;;;-2.65;100.00;102357.09;6122818;29;20071;-78
2022/03/08 06:34:50;;;;;;;6.30;3.67;;;;;;;-2.64;100.00;102346.84;6123642;29;20048;-79
2022/03/08 06:37:51;;;;;;;11.02;2.95;;;;;;;-2.58;100.00;102352.19;6123326;29;20052;-78
2022/03/08 06:40:56;;;;;;;6.70;3.72;;;;;;;-2.51;100.00;102358.34;6123046;29;20086;-78
2022/03/08 06:43:57;;;;;;;8.43;3.70;;;;;;;-2.45;100.00;102350.81;6110770;29;20135;-78
2022/03/08 06:46:58;;;;;;;11.85;3.38;;;;;;;-2.41;100.00;102352.59;6099338;29;20056;-78
2022/03/08 06:50:00;;;;;;;4.60;3.00;;;;;;;-2.35;100.00;102349.31;6099460;29;20582;-78
2022/03/08 06:53:01;;;;;;;9.93;4.05;;;;;;;-2.32;100.00;102349.38;6099246;29;20052;-79
2022/03/08 06:56:04;;;;;;;8.25;3.85;;;;;;;-2.26;100.00;102348.69;6099478;29;20056;-78
2022/03/08 06:59:06;;;;;;;7.05;3.65;;;;;;;-2.19;100.00;102354.00;6099315;29;20063;-78
2022/03/08 07:02:07;;;;;;;6.32;3.55;;;;;;;-2.15;100.00;102349.81;6099072;29;20420;-78
2022/03/08 07:05:10;;;;;;;3.20;2.10;;;;;;;-2.09;100.00;102349.94;6099514;29;20048;-78
2022/03/08 07:08:11;;;;;;;3.08;2.40;;;;;;;-2.02;100.00;102354.44;6100001;29;20052;-78
2022/03/08 07:11:14;;;;;;;5.50;2.53;;;;;;;-1.95;100.00;102355.44;6102885;29;20055;-78
2022/03/08 07:14:17;;;;;;;4.50;2.80;;;;;;;-1.89;100.00;102351.31;6103301;29;20641;-78
2022/03/08 07:17:18;;;;;;;7.40;3.47;;;;;;;-1.83;100.00;102346.28;6103591;29;20127;-79
2022/03/08 07:20:20;;;;;;;7.25;2.33;;;;;;;-1.79;100.00;102347.25;6102635;29;20052;-78
2022/03/08 07:23:21;;;;;;;3.28;2.00;;;;;;;-1.71;100.00;102353.44;6103340;28;20052;-79
2022/03/08 07:26:24;;;;;;;3.40;2.60;;;;;;;-1.68;100.00;102352.63;6103224;29;20051;-80
2022/03/08 07:29:27;;;;;;;7.57;2.85;;;;;;;-1.63;100.00;102353.63;6096302;29;20052;-79
2022/03/08 07:32:28;;;;;;;5.82;2.30;;;;;;;-1.52;100.00;102352.16;6111364;28;20078;-78
2022/03/08 07:35:29;;;;;;;4.43;1.90;;;;;;;-1.43;100.00;102354.94;6126293;28;20048;-79
2022/03/08 07:38:31;;;;;;;4.70;2.65;;;;;;;-1.35;100.00;102349.94;6199816;28;20421;-78
2022/03/08 07:41:34;;;;;;;5.05;3.10;;;;;;;-1.28;100.00;102347.50;6102956;28;20516;-78
2022/03/08 07:44:36;;;;;;;7.38;4.22;;;;;;;-1.19;100.00;102348.56;6112883;28;20051;-78
2022/03/08 07:47:38;;;;;;;5.05;3.20;;;;;;;-1.14;100.00;102354.69;6098547;28;20052;-78
2022/03/08 07:50:39;;;;;;;9.15;4.25;;;;;;;-1.06;100.00;102348.84;6087969;29;20048;-78
2022/03/08 07:53:41;;;;;;;12.05;4.60;;;;;;;-0.99;100.00;102356.72;6089493;28;20080;-79
2022/03/08 07:56:44;;;;;;;9.88;5.30;;;;;;;-0.89;100.00;102349.19;6094874;29;20048;-79
2022/03/08 07:59:45;;;;;;;15.05;6.40;;;;;;;-0.79;100.00;102352.81;6103851;29;20051;-77
2022/03/08 08:02:47;;;;;;;11.52;5.38;;;;;;;-0.67;100.00;102357.34;6109646;29;20400;-78
2022/03/08 08:05:48;;;;;;;11.48;6.32;;;;;;;-0.55;100.00;102358.41;6118252;29;20048;-77
2022/03/08 08:08:49;;;;;;;21.20;4.68;;;;;;;-0.44;100.00;102358.63;6117797;29;20058;-76
2022/03/08 08:11:52;;;;;;;4.80;2.80;;;;;;;-0.36;100.00;102366.53;6106539;29;20052;-78
2022/03/08 08:14:54;;;;;;;19.98;8.95;;;;;;;-0.28;100.00;102359.75;6110004;29;20044;-76
2022/03/08 08:17:55;;;;;;;18.77;7.78;;;;;;;-0.19;100.00;102362.50;6109706;28;20052;-78
2022/03/08 08:20:57;;;;;;;12.60;4.82;;;;;;;-0.07;100.00;102365.28;6081206;29;20059;-78
2022/03/08 08:23:58;;;;;;;6.38;3.25;;;;;;;0.04;100.00;102367.16;6082868;29;20052;-77
2022/03/08 08:27:01;;;;;;;9.27;3.33;;;;;;;0.07;100.00;102362.94;6114377;29;20047;-76
2022/03/08 08:30:02;;;;;;;9.10;4.13;;;;;;;0.23;100.00;102364.91;6101546;29;20048;-77
2022/03/08 08:33:04;;;;;;;3.72;2.17;;;;;;;0.37;100.00;102354.78;6128880;28;20038;-77
2022/03/08 08:36:06;;;;;;;6.15;3.50;;;;;;;0.46;100.00;102351.47;6181554;28;20517;-76
2022/03/08 08:39:07;;;;;;;8.07;2.85;;;;;;;0.60;100.00;102354.25;6224774;28;20056;-75
2022/03/08 08:42:10;;;;;;;6.68;3.25;;;;;;;0.70;100.00;102356.09;6174439;28;20048;-77
2022/03/08 08:45:13;;;;;;;7.07;3.70;;;;;;;0.84;100.00;102346.78;6104335;28;20056;-77
2022/03/08 08:48:14;;;;;;;7.10;3.28;;;;;;;1.01;100.00;102345.28;6109620;29;20123;-77
2022/03/08 08:51:16;;;;;;;7.28;3.17;;;;;;;1.15;100.00;102340.25;6099895;29;20056;-76
2022/03/08 08:54:17;;;;;;;5.95;2.58;;;;;;;1.29;100.00;102339.53;6102000;28;20416;-76
2022/03/08 08:57:20;;;;;;;6.43;3.05;;;;;;;1.42;100.00;102337.09;6127723;28;20449;-77
2022/03/08 09:00:21;;;;;;;8.15;3.50;;;;;;;1.53;100.00;102330.28;6135886;28;20139;-76
2022/03/08 09:03:23;;;;;;;5.25;2.80;;;;;;;1.65;100.00;102324.34;6181133;28;20050;-77
2022/03/08 09:06:24;;;;;;;7.00;3.20;;;;;;;1.78;100.00;102322.75;6142573;28;20131;-77
2022/03/08 09:09:25;;;;;;;11.88;3.95;;;;;;;2.01;100.00;102317.72;6143422;28;20412;-76
2022/03/08 09:12:28;;;;;;;8.73;3.47;;;;;;;2.08;100.00;102316.03;6155973;28;20057;-76
2022/03/08 09:15:31;;;;;;;13.75;3.58;;;;;;;2.11;100.00;102321.25;6102974;28;20131;-77
2022/03/08 09:18:32;;;;;;;9.38;3.70;;;;;;;2.12;100.00;102310.03;6164220;28;20060;-77
2022/03/08 09:21:34;;;;;;;11.95;4.03;;;;;;;2.20;100.00;102308.34;6223146;28;20081;-76
2022/03/08 09:24:37;;;;;;;9.00;3.60;;;;;;;2.30;100.00;102294.56;6223483;28;20050;-77
2022/03/08 09:27:40;;;;;;;5.00;3.10;;;;;;;2.43;100.00;102295.50;6223894;28;20050;-77
2022/03/08 09:30:44;;;;;;;6.15;2.95;;;;;;;2.50;100.00;102294.69;6159774;28;20048;-76
2022/03/08 09:33:46;;;;;;;6.57;2.50;;;;;;;2.71;100.00;102296.50;6114871;28;20173;-77
2022/03/08 09:36:47;;;;;;;5.72;2.65;;;;;;;2.84;100.00;102282.72;6141242;28;20044;-77
2022/03/08 09:39:48;;;;;;;5.95;2.28;;;;;;;3.09;100.00;102286.25;6100139;29;20056;-77
2022/03/08 09:42:52;;;;;;;3.50;1.63;;;;;;;3.21;100.00;102291.47;6099648;29;20056;-77
2022/03/08 09:45:54;;;;;;;4.65;2.45;;;;;;;3.27;100.00;102283.69;6099866;29;20052;-77
2022/03/08 09:48:55;;;;;;;1.95;1.52;;;;;;;3.39;100.00;102285.44;6100324;29;20052;-77
2022/03/08 09:51:56;;;;;;;2.60;1.60;;;;;;;3.60;100.00;102284.59;6099115;29;20060;-77
2022/03/08 09:54:58;;;;;;;5.43;1.80;;;;;;;3.83;98.00;102287.19;6100131;29;20063;-77
2022/03/08 09:58:00;;;;;;;1.60;1.50;;;;;;;3.96;96.68;102286.31;6100041;29;20705;-77
2022/03/08 10:01:02;;;;;;;2.25;1.67;;;;;;;4.11;93.38;102282.81;6099215;29;20151;-76
2022/03/08 10:04:04;;;;;;;2.53;1.02;;;;;;;4.33;92.59;102275.81;6107798;28;20048;-76
2022/03/08 10:07:08;;;;;;;4.28;1.23;;;;;;;4.54;89.42;102267.06;6128060;28;20044;-76
2022/03/08 10:10:10;;;;;;;2.88;1.40;;;;;;;4.80;85.93;102273.00;6104575;28;20047;-77
2022/03/08 10:13:13;;;;;;;1.50;1.17;;;;;;;4.86;84.74;102274.75;6111400;28;20111;-77
2022/03/08 10:16:24;;;;;;;2.00;1.25;;;;;;;4.81;86.86;102274.78;6108305;28;20048;-77
2022/03/08 10:19:25;;;;;;;2.22;1.20;;;;;;;4.93;85.90;102279.03;6097727;28;20056;-76
2022/03/08 10:22:30;;;;;;;1.60;0.82;;;;;;;5.10;85.01;102278.94;6137695;28;20059;-77
2022/03/08 10:25:31;;;;;;;2.35;1.52;;;;;;;5.22;82.92;102275.38;6103798;29;20135;-76
2022/03/08 10:28:44;;;;;;;1.95;1.13;;;;;;;5.17;83.08;102267.59;6100624;28;20048;-76
2022/03/08 10:31:48;;;;;;;1.95;1.00;;;;;;;5.32;82.88;102269.25;6103093;29;20056;-77
2022/03/08 10:34:54;;;;;;;2.50;1.02;;;;;;;5.54;81.29;102260.41;6156334;28;20125;-77
2022/03/08 10:37:58;;;;;;;2.97;1.15;;;;;;;5.56;81.90;102260.38;6157329;28;20048;-77
2022/03/08 10:41:17;;;;;;;4.32;1.30;;;;;;;5.71;79.45;102257.63;6098529;29;20056;-76
2022/03/08 10:44:32;;;;;;;2.60;1.40;;;;;;;5.94;77.63;102267.00;6097985;29;20499;-77
2022/03/08 10:47:41;;;;;;;2.05;1.30;;;;;;;6.09;75.26;102259.91;6104049;28;20055;-77
2022/03/08 10:50:43;;;;;;;1.63;1.08;;;;;;;6.19;74.60;102257.22;6117012;28;20057;-77
2022/03/08 10:53:46;;;;;;;0.95;0.77;;;;;;;6.33;72.46;102253.56;6075452;29;20107;-76
2022/03/08 10:56:47;;;;;;;2.13;1.05;;;;;;;6.49;72.52;102245.53;6100470;29;20121;-78
2022/03/08 10:59:57;;;;;;;2.33;1.10;;;;;;;6.46;72.70;102249.06;6105771;28;20090;-75
2022/03/08 11:03:00;;;;;;;4.57;1.30;;;;;;;6.66;71.61;102243.56;6177722;28;20411;-76
2022/03/08 11:06:05;;;;;;;3.35;1.15;;;;;;;6.85;70.34;102244.19;6208615;28;20050;-76
2022/03/08 11:09:07;;;;;;;1.42;0.90;;;;;;;7.06;69.44;102248.25;6222094;28;20049;-76
2022/03/08 11:12:09;;;;;;;1.77;1.17;;;;;;;7.16;67.77;102236.78;6221201;28;20053;-76
2022/03/08 11:15:14;;;;;;;1.52;0.85;;;;;;;7.23;64.61;102233.19;6089167;28;20051;-78
2022/03/08 11:18:17;;;;;;;4.10;1.30;;;;;;;7.43;63.36;102225.00;6085998;29;20052;-77
2022/03/08 11:21:19;;;;;;;5.03;1.33;;;;;;;7.56;63.96;102228.28;6087213;29;20053;-76
2022/03/08 11:24:22;;;;;;;3.08;1.10;;;;;;;7.72;61.72;102223.63;6098498;29;20044;-76
2022/03/08 11:27:24;;;;;;;2.95;1.45;;;;;;;8.06;60.21;102216.91;6098626;29;20056;-76
2022/03/08 11:30:30;;;;;;;4.13;1.42;;;;;;;8.27;59.57;102210.38;6097814;29;20049;-76
2022/03/08 11:33:43;;;;;;;5.15;1.67;;;;;;;8.39;57.75;102210.16;6098339;28;20526;-76
2022/03/08 11:36:51;;;;;;;9.38;2.38;;;;;;;8.60;54.10;102205.38;6085222;29;20125;-77
2022/03/08 11:40:07;;;;;;;5.78;1.90;;;;;;;8.76;54.27;102195.41;6083573;28;20061;-77
2022/03/08 11:43:08;;;;;;;9.93;2.30;;;;;;;9.09;53.26;102192.00;6084462;28;20053;-77
2022/03/08 11:46:13;;;;;;;8.07;1.95;;;;;;;9.22;51.68;102197.81;6087168;28;20052;-76
2022/03/08 11:49:14;;;;;;;7.82;2.65;;;;;;;9.50;50.71;102187.50;6089582;29;20052;-76
2022/03/08 11:52:19;;;;;;;4.90;1.83;;;;;;;9.73;50.63;102183.41;6077665;29;20056;-76
2022/03/08 11:55:26;;;;;;;6.05;2.30;;;;;;;9.76;47.67;102181.53;6093805;28;20078;-77
2022/03/08 11:58:43;;;;;;;5.55;1.92;;;;;;;9.88;46.38;102181.22;6159369;28;20055;-76
2022/03/08 12:01:48;;;;;;;6.50;1.58;;;;;;;9.98;45.65;102175.72;6101472;29;20462;-77
2022/03/08 12:04:50;;;;;;;4.65;1.58;;;;;;;10.12;47.67;102168.31;6095987;28;20531;-77
2022/03/08 12:07:51;;;;;;;4.50;1.10;;;;;;;10.40;45.64;102171.00;6100257;29;20048;-78
2022/03/08 12:10:57;;;;;;;4.47;1.90;;;;;;;10.46;45.77;102168.22;6103242;29;20058;-76
2022/03/08 12:14:03;;;;;;;3.53;1.40;;;;;;;10.83;46.42;102164.47;6078407;29;20064;-76
2022/03/08 12:17:14;;;;;;;3.88;1.40;;;;;;;10.83;43.28;102167.09;6106991;29;20089;-77
2022/03/08 12:20:15;;;;;;;3.58;1.08;;;;;;;11.01;42.71;102165.63;6108449;29;20052;-77
2022/03/08 12:23:16;;;;;;;1.52;0.98;;;;;;;11.14;42.30;102161.69;6101357;29;20203;-78
2022/03/08 12:26:24;;;;;;;5.68;1.10;;;;;;;11.40;44.08;102156.44;6101619;29;20056;-77
2022/03/08 12:29:28;;;;;;;3.30;1.00;;;;;;;11.61;38.43;102149.53;6102049;29;20512;-77
2022/03/08 12:32:42;;;;;;;2.25;1.30;;;;;;;11.49;34.43;102143.84;6101051;29;20062;-77
2022/03/08 12:35:53;;;;;;;2.70;0.90;;;;;;;11.62;33.54;102134.59;6117883;29;20141;-76
2022/03/08 12:38:54;;;;;;;2.15;0.90;;;;;;;11.62;33.66;102130.19;6124957;29;20492;-77
2022/03/08 12:41:58;;;;;;;0.50;0.50;;;;;;;11.76;33.35;102137.59;6109465;29;20048;-77
2022/03/08 12:45:04;;;;;;;2.53;0.93;;;;;;;12.10;35.72;102136.41;6101415;28;20064;-77
2022/03/08 12:48:10;;;;;;;1.40;1.00;;;;;;;12.16;35.02;102136.16;6101056;29;20191;-77
2022/03/08 12:51:13;;;;;;;0.65;0.60;;;;;;;12.31;33.65;102134.72;6100666;29;20142;-78
2022/03/08 12:54:18;;;;;;;1.08;0.52;;;;;;;12.34;33.74;102137.25;6108585;29;20052;-77
2022/03/08 12:57:20;;;;;;;0.43;0.40;;;;;;;12.47;33.18;102122.69;6124550;29;20048;-77
2022/03/08 13:00:34;;;;;;;0.70;0.60;;;;;;;12.86;33.24;102129.94;6107862;29;20052;-77
2022/03/08 13:03:41;;;;;;;1.45;0.47;;;;;;;12.75;32.23;102127.72;6116634;29;20063;-79
2022/03/08 13:06:43;;;;;;;0.60;0.60;;;;;;;12.65;33.75;102126.38;6100031;29;20075;-78
2022/03/08 13:09:56;;;;;;;2.38;0.90;;;;;;;12.64;34.01;102130.78;6100720;29;20455;-77
2022/03/08 13:12:58;;;;;;;1.20;0.70;;;;;;;13.01;34.68;102117.88;6100329;29;20432;-77
2022/03/08 13:16:00;;;;;;;2.45;0.88;;;;;;;12.82;35.26;102126.56;6100788;29;20052;-77
2022/03/08 13:19:02;;;;;;;1.98;0.70;;;;;;;13.04;34.65;102118.63;6106647;29;20545;-78
2022/03/08 13:22:04;;;;;;;3.00;0.50;;;;;;;12.94;33.59;102115.50;6123562;29;20059;-76
2022/03/08 13:25:10;;;;;;;0.50;0.30;;;;;;;13.12;31.05;102105.06;6124161;29;20047;-77
2022/03/08 13:28:12;;;;;;;0.45;0.40;;;;;;;13.26;31.87;102113.28;6124461;29;20415;-77
2022/03/08 13:31:14;;;;;;;0.93;0.70;;;;;;;13.32;31.40;102106.91;6123492;29;20062;-78
2022/03/08 13:34:17;;;;;;;0.85;0.40;;;;;;;13.26;31.44;102097.47;6124106;29;20062;-77
2022/03/08 13:37:18;;;;;;;0.45;0.45;;;;;;;13.49;29.79;102095.59;6124266;29;20052;-78
2022/03/08 13:40:26;;;;;;;0.43;0.30;;;;;;;13.27;28.73;102086.00;6121516;28;20062;-78
2022/03/08 13:43:29;;;;;;;0.20;0.20;;;;;;;13.26;28.05;102094.81;6100429;29;20431;-78
2022/03/08 13:46:32;;;;;;;0.68;0.40;;;;;;;13.31;29.46;102092.88;6100082;29;20055;-78
2022/03/08 13:49:35;;;;;;;1.80;0.30;;;;;;;13.62;27.53;102086.22;6100529;29;20064;-77
2022/03/08 13:52:36;;;;;;;0.77;0.30;;;;;;;13.53;30.19;102086.63;6076678;28;20057;-78
2022/03/08 13:55:39;;;;;;;0.30;0.30;;;;;;;13.49;28.69;102088.56;6076711;29;20419;-77
2022/03/08 13:58:43;;;;;;;0.63;0.45;;;;;;;13.57;28.72;102088.22;6076906;28;20045;-78
2022/03/08 14:01:58;;;;;;;1.65;0.55;;;;;;;13.40;29.60;102078.41;6076067;29;20053;-77
2022/03/08 14:05:08;;;;;;;0.25;0.20;;;;;;;13.57;28.60;102077.63;6076693;29;20541;-78